Time;durP1;ratioP1;P1;durP2;ratioP2;P2;SDS_P1;SDS_P2;PMS_P1;PMS_P2;Temp;Humidity;BMP_temperature;BMP_pressure;BME280_temperature;BME280_humidity;BME280_pressure;Samples;Min_cycle;Max_cycle;Signal;HPM_P1;HPM_P2
2022/11/01 00:00:48;;;;;;;21.48;13.68;;;16.90;1.00;;;;;;5047889;28;20052;-59
2022/11/01 00:03:14;;;;;;;23.85;13.70;;;17.00;1.00;;;;;;5054628;28;20067;-59
2022/11/01 00:05:40;;;;;;;23.63;13.13;;;17.00;1.00;;;;;;5049620;28;20029;-60
2022/11/01 00:08:05;;;;;;;22.23;12.50;;;17.00;1.00;;;;;;5045072;28;20051;-59
2022/11/01 00:10:31;;;;;;;17.77;12.77;;;17.00;1.00;;;;;;5051570;28;20044;-59
2022/11/01 00:12:57;;;;;;;22.00;13.45;;;17.00;1.00;;;;;;5054469;28;20067;-60
2022/11/01 00:15:22;;;;;;;21.15;12.90;;;17.00;1.00;;;;;;5069138;28;20040;-59
2022/11/01 00:17:48;;;;;;;21.08;12.60;;;16.90;1.00;;;;;;5054353;28;20037;-59
2022/11/01 00:20:13;;;;;;;21.08;11.73;;;16.90;1.00;;;;;;5049426;28;20025;-62
2022/11/01 00:22:39;;;;;;;25.45;11.90;;;16.90;1.00;;;;;;5053045;28;20041;-62
2022/11/01 00:25:05;;;;;;;22.42;12.15;;;16.90;1.00;;;;;;5048100;28;20047;-62
2022/11/01 00:27:30;;;;;;;17.20;11.13;;;16.90;1.00;;;;;;5047432;28;20398;-62
2022/11/01 00:29:56;;;;;;;19.30;11.73;;;16.80;1.00;;;;;;5053317;28;20040;-62
2022/11/01 00:32:21;;;;;;;17.25;11.60;;;16.90;1.00;;;;;;5050698;28;20365;-62
2022/11/01 00:34:47;;;;;;;18.13;11.60;;;16.90;1.00;;;;;;5051285;28;20040;-62
2022/11/01 00:37:13;;;;;;;21.42;12.13;;;16.90;1.00;;;;;;5055558;28;20033;-62
2022/11/01 00:39:39;;;;;;;18.65;11.98;;;16.80;1.00;;;;;;5053805;28;20057;-62
2022/11/01 00:42:06;;;;;;;16.67;10.80;;;16.80;1.00;;;;;;5050872;28;20148;-62
2022/11/01 00:44:32;;;;;;;20.13;12.35;;;16.80;1.00;;;;;;5049467;28;20197;-62
2022/11/01 00:46:57;;;;;;;14.80;11.30;;;16.80;1.00;;;;;;5051717;28;20061;-62
2022/11/01 00:49:23;;;;;;;21.20;12.57;;;16.80;1.00;;;;;;5052950;28;20029;-62
2022/11/01 00:51:51;;;;;;;19.42;12.30;;;16.80;1.00;;;;;;5055043;28;20118;-62
2022/11/01 00:54:17;;;;;;;20.90;12.75;;;16.80;1.00;;;;;;5053773;28;20151;-62
2022/11/01 00:56:42;;;;;;;17.98;12.88;;;16.80;1.00;;;;;;5052398;28;20096;-62
2022/11/01 00:59:08;;;;;;;24.42;12.85;;;16.80;1.00;;;;;;5055450;28;20501;-62
2022/11/01 01:01:34;;;;;;;21.70;12.93;;;16.80;1.00;;;;;;5053455;28;20040;-62
2022/11/01 01:03:59;;;;;;;19.92;12.32;;;16.70;1.00;;;;;;5051076;28;20036;-62
2022/11/01 01:06:25;;;;;;;16.35;11.50;;;16.80;1.00;;;;;;5049367;28;20091;-62
2022/11/01 01:08:50;;;;;;;16.75;11.27;;;16.70;1.00;;;;;;5051549;28;20041;-62
2022/11/01 01:11:16;;;;;;;21.33;12.45;;;16.70;1.00;;;;;;5052184;28;20020;-62
2022/11/01 01:13:42;;;;;;;24.58;13.63;;;16.70;1.00;;;;;;5053167;28;20091;-62
2022/11/01 01:16:12;;;;;;;21.33;12.27;;;16.70;1.00;;;;;;5048593;28;20111;-62
2022/11/01 01:18:37;;;;;;;20.52;12.10;;;16.70;1.00;;;;;;5051202;28;20144;-62
2022/11/01 01:21:04;;;;;;;17.13;11.50;;;16.70;1.00;;;;;;5053755;28;20453;-62
2022/11/01 01:23:30;;;;;;;16.92;11.48;;;16.70;1.00;;;;;;5051663;28;20028;-62
2022/11/01 01:25:56;;;;;;;21.52;11.88;;;16.70;1.00;;;;;;5052173;28;20079;-61
2022/11/01 01:28:21;;;;;;;22.35;12.38;;;16.70;1.00;;;;;;5055055;28;20142;-61
2022/11/01 01:30:47;;;;;;;19.00;11.35;;;16.70;1.00;;;;;;5050203;28;20885;-61
2022/11/01 01:33:12;;;;;;;22.45;12.68;;;16.70;1.00;;;;;;5051848;28;20490;-61
2022/11/01 01:35:38;;;;;;;26.15;13.25;;;16.70;1.00;;;;;;5051147;28;20047;-61
2022/11/01 01:38:05;;;;;;;17.52;12.80;;;16.50;1.00;;;;;;5049581;28;20036;-62
2022/11/01 01:40:31;;;;;;;21.08;12.70;;;16.60;1.00;;;;;;5049918;28;20024;-62
2022/11/01 01:42:57;;;;;;;19.83;12.45;;;16.60;1.00;;;;;;5053520;28;20457;-62
2022/11/01 01:45:29;;;;;;;19.63;12.38;;;16.60;1.00;;;;;;5046683;28;20029;-62
2022/11/01 01:48:01;;;;;;;21.38;12.75;;;16.60;1.00;;;;;;5051397;28;20493;-62
2022/11/01 01:50:35;;;;;;;17.15;11.48;;;16.60;1.00;;;;;;5050613;28;20470;-62
2022/11/01 01:53:09;;;;;;;20.27;11.70;;;16.60;1.00;;;;;;5052096;28;20435;-62
2022/11/01 01:55:36;;;;;;;18.03;12.27;;;16.60;1.00;;;;;;5051503;28;20036;-62
2022/11/01 01:58:03;;;;;;;19.63;11.23;;;16.60;1.00;;;;;;5051576;28;20085;-62
2022/11/01 02:00:28;;;;;;;20.27;12.18;;;16.60;1.00;;;;;;5051953;28;20063;-62
2022/11/01 02:02:54;;;;;;;17.33;11.90;;;16.60;1.00;;;;;;5048684;28;20113;-62
2022/11/01 02:05:36;;;;;;;20.25;11.75;;;16.60;1.00;;;;;;5048395;28;20029;-62
2022/11/01 02:08:05;;;;;;;18.45;11.98;;;16.50;1.00;;;;;;5050726;28;20017;-61
2022/11/01 02:10:31;;;;;;;17.70;11.68;;;16.50;1.00;;;;;;5058850;28;20040;-62
2022/11/01 02:12:57;;;;;;;14.07;10.15;;;16.50;1.00;;;;;;5055223;28;20082;-62
2022/11/01 02:15:32;;;;;;;17.65;10.40;;;16.50;1.00;;;;;;5050317;28;20021;-62
2022/11/01 02:18:29;;;;;;;17.30;10.20;;;16.40;1.00;;;;;;5049742;28;20091;-62
2022/11/01 02:21:21;;;;;;;16.15;9.77;;;16.50;1.00;;;;;;5041815;28;20037;-62
2022/11/01 02:24:01;;;;;;;19.10;10.10;;;16.50;1.00;;;;;;5047036;28;20026;-62
2022/11/01 02:27:11;;;;;;;17.50;9.93;;;16.40;1.00;;;;;;5049264;28;20489;-62
2022/11/01 02:30:02;;;;;;;15.82;9.27;;;16.40;1.00;;;;;;5058210;28;20379;-62
2022/11/01 02:36:04;;;;;;;17.90;10.00;;;16.40;1.00;;;;;;5007355;28;20065;-61
2022/11/01 02:38:54;;;;;;;20.98;10.20;;;16.40;1.00;;;;;;5051413;28;20351;-62
2022/11/01 02:41:25;;;;;;;17.00;9.63;;;16.50;1.00;;;;;;5049558;28;20108;-62
2022/11/01 02:44:00;;;;;;;14.32;8.77;;;16.50;1.00;;;;;;5050671;28;20026;-62
2022/11/01 02:49:18;;;;;;;14.55;9.30;;;16.50;1.00;;;;;;5053883;28;20094;-62
2022/11/01 02:51:45;;;;;;;16.80;9.85;;;16.50;1.00;;;;;;5045813;28;20017;-62
2022/11/01 02:54:21;;;;;;;15.15;8.98;;;16.50;1.00;;;;;;5047820;28;20083;-62
2022/11/01 02:56:48;;;;;;;15.32;9.70;;;16.50;1.00;;;;;;5048503;28;20047;-62
2022/11/01 02:59:23;;;;;;;16.30;8.77;;;16.50;1.00;;;;;;5045970;28;20132;-61
2022/11/01 03:02:05;;;;;;;16.85;8.90;;;16.50;1.00;;;;;;5046284;28;20017;-62
2022/11/01 03:04:31;;;;;;;16.85;9.52;;;16.60;1.00;;;;;;5051527;28;20029;-62
2022/11/01 03:07:00;;;;;;;13.90;7.82;;;16.60;1.00;;;;;;5051360;28;20536;-62
2022/11/01 03:13:01;;;;;;;18.08;9.10;;;16.60;1.00;;;;;;5046700;28;20525;-62
2022/11/01 03:15:31;;;;;;;12.55;8.45;;;16.60;1.00;;;;;;5050056;28;20025;-62
2022/11/01 03:18:10;;;;;;;16.02;8.60;;;16.60;1.00;;;;;;5049420;28;20049;-62
2022/11/01 03:20:47;;;;;;;13.15;8.48;;;16.60;1.00;;;;;;5049623;28;20502;-62
2022/11/01 03:23:24;;;;;;;12.25;8.15;;;16.60;1.00;;;;;;5050713;28;20052;-62
2022/11/01 03:25:54;;;;;;;12.43;8.02;;;16.60;1.00;;;;;;5050643;28;20029;-62
2022/11/01 03:28:21;;;;;;;14.52;8.82;;;16.70;1.00;;;;;;5051285;28;20079;-62
2022/11/01 03:30:55;;;;;;;13.27;7.82;;;16.70;1.00;;;;;;5048744;28;20028;-62
2022/11/01 03:33:22;;;;;;;20.17;9.30;;;16.70;1.00;;;;;;5049397;28;20040;-62
2022/11/01 03:35:52;;;;;;;12.65;8.05;;;16.60;1.00;;;;;;5050595;28;20432;-62
2022/11/01 03:38:22;;;;;;;13.27;8.95;;;16.70;1.00;;;;;;5047215;28;20171;-62
2022/11/01 03:40:52;;;;;;;14.65;8.18;;;16.70;1.00;;;;;;5050223;28;20544;-62
2022/11/01 03:43:22;;;;;;;13.80;9.10;;;16.70;1.00;;;;;;5052865;28;20035;-62
2022/11/01 03:45:47;;;;;;;14.10;8.75;;;16.70;1.00;;;;;;5053293;28;20029;-62
2022/11/01 03:48:13;;;;;;;12.10;7.82;;;16.70;1.00;;;;;;5053708;28;20467;-61
2022/11/01 03:50:44;;;;;;;14.30;8.38;;;16.70;1.00;;;;;;5053076;28;20032;-62
2022/11/01 03:53:10;;;;;;;13.13;8.45;;;16.70;1.00;;;;;;5052653;28;20025;-62
2022/11/01 03:55:36;;;;;;;11.90;8.57;;;16.70;1.00;;;;;;5054590;28;20033;-62
2022/11/01 03:58:01;;;;;;;13.88;8.32;;;16.60;1.00;;;;;;5054791;28;20018;-62
2022/11/01 04:00:39;;;;;;;16.58;8.80;;;16.60;1.00;;;;;;5052117;28;20391;-62
2022/11/01 04:03:05;;;;;;;13.73;8.13;;;16.50;1.00;;;;;;5053857;28;20029;-62
2022/11/01 04:05:32;;;;;;;9.55;7.68;;;16.50;1.00;;;;;;5064479;28;20041;-61
2022/11/01 04:07:58;;;;;;;15.05;8.45;;;16.60;1.00;;;;;;5053358;28;20033;-62
2022/11/01 04:10:25;;;;;;;10.70;7.55;;;16.50;1.00;;;;;;5054417;28;20534;-61
2022/11/01 04:12:52;;;;;;;13.45;8.55;;;16.50;1.00;;;;;;5057393;28;20429;-61
2022/11/01 04:21:08;;;;;;;14.73;8.68;;;16.50;1.00;;;;;;5058028;28;20055;-62
2022/11/01 04:23:34;;;;;;;15.10;8.40;;;16.50;1.00;;;;;;5053115;28;20045;-62
2022/11/01 04:26:00;;;;;;;16.52;8.55;;;16.50;1.00;;;;;;5053222;28;20039;-62
2022/11/01 04:28:27;;;;;;;12.90;8.38;;;16.50;1.00;;;;;;5054364;28;20065;-62
2022/11/01 04:30:53;;;;;;;17.27;8.00;;;16.50;1.00;;;;;;5053758;28;20064;-62
2022/11/01 04:33:18;;;;;;;16.90;8.27;;;16.50;1.00;;;;;;5050102;28;20028;-62
2022/11/01 04:35:45;;;;;;;13.50;7.88;;;16.50;1.00;;;;;;5051795;28;20542;-63
2022/11/01 04:38:11;;;;;;;10.27;7.82;;;16.60;1.00;;;;;;5050211;28;20536;-61
2022/11/01 04:40:37;;;;;;;12.27;7.68;;;16.60;1.00;;;;;;5054655;28;20116;-62
2022/11/01 04:43:03;;;;;;;12.93;7.75;;;16.60;1.00;;;;;;5056128;28;20048;-62
2022/11/01 04:45:29;;;;;;;12.02;7.38;;;16.60;1.00;;;;;;5051278;28;20509;-62
2022/11/01 04:48:06;;;;;;;13.45;7.65;;;16.60;1.00;;;;;;5051259;28;20392;-62
2022/11/01 04:50:33;;;;;;;11.00;8.00;;;16.60;1.00;;;;;;5051954;28;20037;-62
2022/11/01 04:53:00;;;;;;;10.63;7.07;;;16.60;1.00;;;;;;5049826;28;20068;-62
2022/11/01 04:55:29;;;;;;;9.50;6.47;;;16.60;1.00;;;;;;5054136;28;20054;-62
2022/11/01 04:57:55;;;;;;;15.43;7.05;;;16.70;1.00;;;;;;5052446;28;20435;-62
2022/11/01 05:00:21;;;;;;;14.32;7.28;;;16.60;1.00;;;;;;5048206;28;20360;-61
2022/11/01 05:02:48;;;;;;;12.27;6.78;;;16.60;1.00;;;;;;5054910;28;20091;-62
2022/11/01 05:05:13;;;;;;;9.75;7.00;;;16.70;1.00;;;;;;5056532;28;20078;-62
2022/11/01 05:07:39;;;;;;;10.05;7.38;;;16.70;1.00;;;;;;5050526;28;20033;-62
2022/11/01 05:10:06;;;;;;;12.45;7.32;;;16.70;1.00;;;;;;5052913;28;20036;-62
2022/11/01 05:12:32;;;;;;;13.10;7.20;;;16.70;1.00;;;;;;5052010;28;20413;-62
2022/11/01 05:14:57;;;;;;;10.55;6.88;;;16.70;1.00;;;;;;5052597;28;20029;-62
2022/11/01 05:17:23;;;;;;;17.35;7.78;;;16.70;1.00;;;;;;5052988;28;20406;-62
2022/11/01 05:19:49;;;;;;;14.82;7.03;;;16.70;1.00;;;;;;5051979;28;20040;-62
2022/11/01 05:22:15;;;;;;;13.98;6.65;;;16.70;1.00;;;;;;5051861;28;20024;-62
2022/11/01 05:24:41;;;;;;;11.05;7.03;;;16.70;1.00;;;;;;5053078;28;20036;-62
2022/11/01 05:27:07;;;;;;;16.92;7.35;;;16.70;1.00;;;;;;5052897;28;20390;-62
2022/11/01 05:29:32;;;;;;;10.93;6.55;;;16.70;1.00;;;;;;5050559;28;20143;-63
2022/11/01 05:31:58;;;;;;;14.05;6.82;;;16.60;1.00;;;;;;5054165;28;20028;-62
2022/11/01 05:34:23;;;;;;;10.60;6.88;;;16.70;1.00;;;;;;5053548;28;20381;-62
2022/11/01 05:36:49;;;;;;;11.65;6.40;;;16.70;1.00;;;;;;5053169;28;20032;-62
2022/11/01 05:39:15;;;;;;;15.57;7.60;;;16.70;1.00;;;;;;5052745;28;20456;-61
2022/11/01 05:41:40;;;;;;;11.23;7.45;;;16.70;1.00;;;;;;5046906;28;20033;-61
2022/11/01 05:44:06;;;;;;;11.43;6.80;;;16.70;1.00;;;;;;5046015;28;20029;-61
2022/11/01 05:46:32;;;;;;;11.63;7.00;;;16.70;1.00;;;;;;5052521;28;20024;-61
2022/11/01 05:48:57;;;;;;;8.80;6.43;;;16.70;1.00;;;;;;5053486;28;20041;-62
2022/11/01 05:51:23;;;;;;;15.07;6.68;;;16.70;1.00;;;;;;5050268;28;20025;-62
2022/11/01 05:53:49;;;;;;;14.82;6.85;;;16.70;1.00;;;;;;5053046;28;20029;-61
2022/11/01 05:56:16;;;;;;;11.18;7.18;;;16.70;1.00;;;;;;5051732;28;20794;-62
2022/11/01 05:58:41;;;;;;;9.82;6.55;;;16.70;1.00;;;;;;5050936;28;20390;-62
2022/11/01 06:01:07;;;;;;;12.75;7.13;;;16.70;1.00;;;;;;5053824;28;20035;-62
2022/11/01 06:03:33;;;;;;;12.27;7.30;;;16.80;1.00;;;;;;5049577;28;20033;-62
2022/11/01 06:05:59;;;;;;;14.80;7.07;;;16.80;1.00;;;;;;5052298;28;20061;-62
2022/11/01 06:08:26;;;;;;;11.38;6.72;;;16.70;1.00;;;;;;5041308;28;20026;-62
2022/11/01 06:10:52;;;;;;;11.98;7.15;;;16.80;1.00;;;;;;5053601;28;20037;-62
2022/11/01 06:13:18;;;;;;;9.35;6.43;;;16.80;1.00;;;;;;5049456;28;20068;-62
2022/11/01 06:15:44;;;;;;;12.88;7.55;;;16.70;1.00;;;;;;5054551;28;20025;-62
2022/11/01 06:18:10;;;;;;;12.52;6.78;;;16.70;1.00;;;;;;5051236;28;20099;-62
2022/11/01 06:20:37;;;;;;;10.02;6.90;;;16.70;1.00;;;;;;5050200;28;20028;-62
2022/11/01 06:23:08;;;;;;;11.68;6.38;;;16.70;1.00;;;;;;5051143;28;20028;-62
2022/11/01 06:25:35;;;;;;;12.45;6.68;;;16.70;1.00;;;;;;5051270;28;23272;-62
2022/11/01 06:28:01;;;;;;;12.15;6.72;;;16.80;1.00;;;;;;5049179;28;20021;-62
2022/11/01 06:30:26;;;;;;;14.05;7.38;;;16.70;1.00;;;;;;5051267;28;20445;-62
2022/11/01 06:32:57;;;;;;;11.15;6.45;;;16.80;1.00;;;;;;5049910;28;20455;-62
2022/11/01 06:35:22;;;;;;;10.35;6.22;;;16.80;1.00;;;;;;5048586;28;20025;-62
2022/11/01 06:37:48;;;;;;;13.48;7.90;;;16.90;1.00;;;;;;5050648;28;20024;-62
2022/11/01 06:40:13;;;;;;;11.25;7.03;;;16.80;1.00;;;;;;5050930;28;20500;-62
2022/11/01 06:42:39;;;;;;;10.98;7.60;;;16.80;1.00;;;;;;5043668;28;20108;-62
2022/11/01 06:45:06;;;;;;;10.00;6.63;;;16.90;1.00;;;;;;5053261;28;20423;-62
2022/11/01 06:47:31;;;;;;;13.32;6.78;;;16.90;1.00;;;;;;5049420;28;20048;-62
2022/11/01 06:49:57;;;;;;;10.45;6.15;;;16.90;1.00;;;;;;5050896;28;20118;-61
2022/11/01 06:52:22;;;;;;;9.18;6.25;;;17.00;1.00;;;;;;5052217;28;20474;-61
2022/11/01 06:54:48;;;;;;;12.30;7.43;;;16.90;1.00;;;;;;5052809;28;20079;-61
2022/11/01 06:57:14;;;;;;;11.15;7.30;;;17.00;1.00;;;;;;5050978;28;20032;-61
2022/11/01 06:59:39;;;;;;;11.15;6.60;;;17.00;1.00;;;;;;5047110;28;20021;-62
2022/11/01 07:02:06;;;;;;;17.25;7.25;;;17.10;1.00;;;;;;5047249;28;20025;-62
2022/11/01 07:04:32;;;;;;;12.43;7.05;;;17.00;1.00;;;;;;5050745;28;20112;-62
2022/11/01 07:06:57;;;;;;;13.57;7.22;;;17.00;1.00;;;;;;5050894;28;20522;-62
2022/11/01 07:09:23;;;;;;;13.02;7.88;;;17.10;1.00;;;;;;5050077;28;20036;-62
2022/11/01 07:11:48;;;;;;;14.43;7.25;;;17.10;1.00;;;;;;5045400;28;20055;-62
2022/11/01 07:14:14;;;;;;;13.50;7.03;;;17.10;1.00;;;;;;5049982;28;20072;-62
2022/11/01 07:16:40;;;;;;;12.55;7.40;;;17.10;1.00;;;;;;5046488;28;20027;-59
2022/11/01 07:19:06;;;;;;;12.45;6.80;;;17.10;1.00;;;;;;5054523;28;20025;-59
2022/11/01 07:21:32;;;;;;;12.10;6.93;;;17.10;1.00;;;;;;5069165;28;20090;-59
2022/11/01 07:23:57;;;;;;;12.30;7.78;;;17.20;1.00;;;;;;5049716;28;20413;-59
2022/11/01 07:26:23;;;;;;;10.85;6.93;;;17.20;1.00;;;;;;5048422;28;20028;-59
2022/11/01 07:28:48;;;;;;;10.23;6.75;;;17.20;1.00;;;;;;5050300;28;20037;-59
2022/11/01 07:31:14;;;;;;;17.10;7.18;;;17.20;1.00;;;;;;5051707;28;20028;-59
2022/11/01 07:33:39;;;;;;;9.73;7.22;;;17.30;1.00;;;;;;5047113;28;20031;-59
2022/11/01 07:36:05;;;;;;;9.13;6.35;;;17.30;1.00;;;;;;5049072;28;20494;-60
2022/11/01 07:38:31;;;;;;;10.27;7.10;;;17.30;1.00;;;;;;5049280;28;20108;-59
2022/11/01 07:40:57;;;;;;;13.05;7.57;;;17.40;1.00;;;;;;5047307;28;20120;-59
2022/11/01 07:43:23;;;;;;;13.48;7.30;;;17.40;1.00;;;;;;5052921;28;20029;-59
2022/11/01 07:45:49;;;;;;;13.02;7.40;;;17.40;1.00;;;;;;5043963;28;20056;-62
2022/11/01 07:48:17;;;;;;;12.32;7.68;;;17.40;1.00;;;;;;5048583;28;20044;-62
2022/11/01 07:50:43;;;;;;;11.77;7.05;;;17.40;1.00;;;;;;5049650;28;20017;-62
2022/11/01 07:53:17;;;;;;;13.00;6.90;;;17.40;1.00;;;;;;5049355;28;20021;-62
2022/11/01 07:55:44;;;;;;;9.45;7.18;;;17.50;1.00;;;;;;5053730;28;20021;-62
2022/11/01 07:58:11;;;;;;;15.48;7.07;;;17.50;1.00;;;;;;5050064;28;20068;-62
2022/11/01 08:00:37;;;;;;;13.55;7.15;;;17.60;1.00;;;;;;5049495;28;20056;-62
2022/11/01 08:03:05;;;;;;;13.85;7.80;;;17.60;1.00;;;;;;5049310;28;20033;-62
2022/11/01 08:05:31;;;;;;;10.18;7.18;;;17.60;1.00;;;;;;5051034;28;20025;-62
2022/11/01 08:07:57;;;;;;;13.48;7.65;;;17.60;1.00;;;;;;5047133;28;20147;-62
2022/11/01 08:10:24;;;;;;;11.90;7.57;;;17.60;1.00;;;;;;5046760;28;20036;-62
2022/11/01 08:12:49;;;;;;;12.05;7.38;;;17.60;1.00;;;;;;5047054;28;20471;-62
2022/11/01 08:15:15;;;;;;;11.82;7.80;;;17.60;1.00;;;;;;5048772;28;20072;-61
2022/11/01 08:17:41;;;;;;;14.50;7.95;;;17.70;1.00;;;;;;5052127;28;20043;-62
2022/11/01 08:23:28;;;;;;;12.27;7.18;;;17.70;1.00;;;;;;5043500;28;20063;-62
2022/11/01 08:25:55;;;;;;;10.80;7.10;;;17.60;1.00;;;;;;5052750;28;20049;-62
2022/11/01 08:28:22;;;;;;;11.10;7.55;;;17.70;1.00;;;;;;5063165;28;20033;-62
2022/11/01 08:30:49;;;;;;;14.05;7.90;;;17.70;1.00;;;;;;5051747;28;20029;-62
2022/11/01 08:33:14;;;;;;;11.85;7.57;;;17.70;1.00;;;;;;5052797;28;20029;-62
2022/11/01 08:35:40;;;;;;;14.93;7.40;;;17.80;1.00;;;;;;5050538;28;20022;-62
2022/11/01 08:38:06;;;;;;;11.35;7.70;;;17.70;1.00;;;;;;5050008;28;20119;-62
2022/11/01 08:40:32;;;;;;;10.77;7.47;;;17.80;1.00;;;;;;5051688;28;20040;-62
2022/11/01 08:42:59;;;;;;;10.02;8.15;;;17.80;1.00;;;;;;5045044;28;20033;-62
2022/11/01 08:45:25;;;;;;;14.35;7.68;;;17.80;1.00;;;;;;5053988;28;20053;-62
2022/11/01 08:48:04;;;;;;;10.70;7.57;;;17.80;1.00;;;;;;5051895;28;20040;-62
2022/11/01 08:50:35;;;;;;;13.00;8.75;;;17.80;1.00;;;;;;5053366;28;20048;-62
2022/11/01 08:53:09;;;;;;;12.07;8.18;;;17.80;1.00;;;;;;5052976;28;20024;-62
2022/11/01 08:55:35;;;;;;;14.57;9.32;;;17.80;1.00;;;;;;5050669;28;20036;-60
2022/11/01 08:58:01;;;;;;;14.60;8.32;;;17.90;1.00;;;;;;5050869;28;20498;-60
2022/11/01 09:00:27;;;;;;;14.77;9.50;;;17.90;1.00;;;;;;5053394;28;20024;-59
2022/11/01 09:02:52;;;;;;;16.33;9.93;;;17.90;1.00;;;;;;5049795;28;20492;-59
2022/11/01 09:05:18;;;;;;;15.45;9.68;;;17.90;1.00;;;;;;5053212;28;20048;-60
2022/11/01 09:07:44;;;;;;;18.38;10.70;;;17.90;1.00;;;;;;5049410;28;20104;-60
2022/11/01 09:10:10;;;;;;;17.75;9.45;;;17.90;1.00;;;;;;5049354;28;20394;-60
2022/11/01 09:13:01;;;;;;;16.58;9.48;;;17.90;1.00;;;;;;5052510;28;20022;-59
2022/11/01 09:15:26;;;;;;;14.38;9.68;;;17.90;1.00;;;;;;5066797;28;20025;-60
2022/11/01 09:18:14;;;;;;;12.68;8.32;;;18.00;1.00;;;;;;5051796;28;20102;-60
2022/11/01 09:20:40;;;;;;;13.85;8.23;;;18.00;1.00;;;;;;5050032;28;20029;-61
2022/11/01 09:23:05;;;;;;;13.20;8.02;;;18.10;1.00;;;;;;5055426;28;20032;-60
2022/11/01 09:25:31;;;;;;;13.80;8.05;;;18.10;1.00;;;;;;5050299;28;20033;-60
2022/11/01 09:27:57;;;;;;;14.85;8.50;;;18.10;1.00;;;;;;5052400;28;20047;-60
2022/11/01 09:30:23;;;;;;;13.73;8.82;;;18.20;1.00;;;;;;5051548;28;20065;-60
2022/11/01 09:32:49;;;;;;;10.85;8.07;;;18.20;1.00;;;;;;5047879;28;20025;-59
2022/11/01 09:35:14;;;;;;;13.65;7.82;;;18.30;1.00;;;;;;5052846;28;20062;-60
2022/11/01 09:37:40;;;;;;;10.38;8.32;;;18.30;1.00;;;;;;5051650;28;20028;-60
2022/11/01 09:40:06;;;;;;;13.05;8.55;;;18.30;1.00;;;;;;5051071;28;20048;-60
2022/11/01 09:42:43;;;;;;;11.18;7.88;;;18.20;1.00;;;;;;5048965;28;20115;-60
2022/11/01 09:45:21;;;;;;;12.82;8.98;;;18.20;1.00;;;;;;5053060;28;20025;-60
2022/11/01 09:47:53;;;;;;;11.85;8.13;;;18.30;1.00;;;;;;5047145;28;20483;-59
2022/11/01 09:50:29;;;;;;;16.08;9.45;;;18.40;1.00;;;;;;5045264;28;20045;-59
2022/11/01 09:52:56;;;;;;;14.45;7.65;;;18.50;1.00;;;;;;5049655;28;20036;-58
2022/11/01 09:55:48;;;;;;;14.48;8.73;;;18.60;1.00;;;;;;5052505;28;20055;-59
2022/11/01 09:58:35;;;;;;;12.30;8.52;;;18.70;1.00;;;;;;5047248;28;20498;-59
2022/11/01 10:01:24;;;;;;;13.02;9.23;;;18.80;1.00;;;;;;5048085;28;20033;-57
2022/11/01 10:04:01;;;;;;;11.63;9.70;;;18.90;1.00;;;;;;5048412;28;20055;-59
2022/11/01 10:06:38;;;;;;;14.50;9.30;;;18.90;1.00;;;;;;5047877;28;20038;-59
2022/11/01 10:09:25;;;;;;;12.57;8.23;;;19.00;1.00;;;;;;5048827;28;20031;-59
2022/11/01 10:12:02;;;;;;;12.80;7.57;;;19.00;1.00;;;;;;5051930;28;20560;-59
2022/11/01 10:14:43;;;;;;;13.18;8.80;;;18.90;1.00;;;;;;5051228;28;20033;-59
2022/11/01 10:17:21;;;;;;;14.15;8.93;;;19.00;1.00;;;;;;5052533;28;20057;-59
2022/11/01 10:19:49;;;;;;;13.77;8.18;;;19.00;1.00;;;;;;5050821;28;20025;-59
2022/11/01 10:22:17;;;;;;;10.82;8.20;;;19.10;1.00;;;;;;5050311;28;20025;-59
2022/11/01 10:24:56;;;;;;;17.13;7.95;;;19.10;1.00;;;;;;5045380;28;20021;-59
2022/11/01 10:27:35;;;;;;;11.82;8.20;;;19.10;1.00;;;;;;5064051;28;20052;-59
2022/11/01 10:30:09;;;;;;;9.15;7.40;;;19.10;1.00;;;;;;5046796;28;20037;-59
2022/11/01 10:33:00;;;;;;;11.85;8.00;;;19.20;1.00;;;;;;5049241;28;20170;-59
2022/11/01 10:35:52;;;;;;;14.05;7.32;;;19.10;1.00;;;;;;5044421;28;20021;-59
2022/11/01 10:38:40;;;;;;;12.10;7.32;;;19.20;1.00;;;;;;5050355;28;20021;-58
2022/11/01 10:41:27;;;;;;;12.27;6.63;;;19.20;1.00;;;;;;5046724;28;20025;-59
2022/11/01 10:43:57;;;;;;;9.15;7.30;;;19.30;1.00;;;;;;5047809;28;20487;-58
2022/11/01 10:46:37;;;;;;;12.38;6.65;;;19.30;1.00;;;;;;5046340;28;20030;-58
2022/11/01 10:49:06;;;;;;;11.75;6.53;;;19.30;1.00;;;;;;5050959;28;20059;-58
2022/11/01 10:51:33;;;;;;;11.07;6.80;;;19.30;1.00;;;;;;5050369;28;20083;-58
2022/11/01 10:54:03;;;;;;;14.30;7.13;;;19.30;1.00;;;;;;5050842;28;20032;-59
2022/11/01 10:56:40;;;;;;;11.45;8.25;;;19.30;1.00;;;;;;5051977;28;20035;-59
2022/11/01 10:59:10;;;;;;;9.82;6.30;;;19.30;1.00;;;;;;5048855;28;20497;-59
2022/11/01 11:01:41;;;;;;;10.15;7.22;;;19.30;1.00;;;;;;5046180;28;20069;-59
2022/11/01 11:04:13;;;;;;;11.18;7.25;;;19.20;1.00;;;;;;5049823;28;20067;-59
2022/11/01 11:06:39;;;;;;;9.48;7.30;;;19.30;1.00;;;;;;5049360;28;20036;-59
2022/11/01 11:09:06;;;;;;;11.43;7.53;;;19.20;1.00;;;;;;5064691;28;20033;-59
2022/11/01 11:11:43;;;;;;;11.70;7.13;;;19.20;1.00;;;;;;5048921;28;20040;-58
2022/11/01 11:14:11;;;;;;;11.18;7.72;;;19.20;1.00;;;;;;5046560;28;20033;-57
2022/11/01 11:16:52;;;;;;;14.27;7.72;;;19.10;1.00;;;;;;5050131;28;20052;-60
2022/11/01 11:19:32;;;;;;;13.77;7.97;;;19.10;1.00;;;;;;5051934;28;20035;-59
2022/11/01 11:22:00;;;;;;;12.82;8.02;;;19.10;1.00;;;;;;5048981;28;20025;-59
2022/11/01 11:24:25;;;;;;;13.50;8.25;;;19.10;1.00;;;;;;5048700;28;20059;-59
2022/11/01 11:26:54;;;;;;;14.48;8.65;;;19.10;1.00;;;;;;5050021;28;20053;-59
2022/11/01 11:29:37;;;;;;;17.35;9.48;;;19.10;1.00;;;;;;5049622;28;20044;-59
2022/11/01 11:32:07;;;;;;;13.82;9.32;;;19.20;1.00;;;;;;5045333;28;20104;-59
2022/11/01 11:34:35;;;;;;;13.60;9.82;;;19.20;1.00;;;;;;5046088;28;20837;-59
2022/11/01 11:37:04;;;;;;;14.70;9.35;;;19.10;1.00;;;;;;5051178;28;20032;-59
2022/11/01 11:39:35;;;;;;;14.57;9.75;;;19.10;1.00;;;;;;5048766;28;20462;-59
2022/11/01 11:42:16;;;;;;;15.50;9.18;;;19.20;1.00;;;;;;5048470;28;20120;-59
2022/11/01 11:44:46;;;;;;;13.80;8.45;;;19.10;1.00;;;;;;5046097;28;20525;-60
2022/11/01 11:47:23;;;;;;;12.07;8.82;;;19.10;1.00;;;;;;5050613;28;20219;-59
2022/11/01 11:49:52;;;;;;;15.38;8.98;;;19.00;1.00;;;;;;5047278;28;20033;-59
2022/11/01 11:52:26;;;;;;;13.50;7.75;;;18.90;1.00;;;;;;5048620;28;20041;-59
2022/11/01 11:54:51;;;;;;;12.45;8.70;;;18.90;1.00;;;;;;5049357;28;20052;-59
2022/11/01 11:57:29;;;;;;;11.35;8.30;;;18.90;1.00;;;;;;5046867;28;20056;-59
2022/11/01 12:00:04;;;;;;;20.02;8.88;;;18.80;1.00;;;;;;5052021;28;20155;-59
2022/11/01 12:02:34;;;;;;;14.40;8.60;;;18.90;1.00;;;;;;5049979;28;20794;-59
2022/11/01 12:05:22;;;;;;;13.50;8.60;;;18.90;1.00;;;;;;5049507;28;20025;-59
2022/11/01 12:07:50;;;;;;;14.35;8.63;;;18.90;1.00;;;;;;5055778;28;20043;-59
2022/11/01 12:10:34;;;;;;;13.02;8.35;;;18.90;1.00;;;;;;5050945;28;20047;-60
2022/11/01 12:13:26;;;;;;;16.38;9.57;;;18.80;1.00;;;;;;5052885;28;20025;-59
2022/11/01 12:16:16;;;;;;;11.80;9.18;;;18.30;1.00;;;;;;5052796;28;20479;-59
2022/11/01 12:18:51;;;;;;;11.82;9.02;;;18.20;1.00;;;;;;5052624;28;20052;-59
2022/11/01 12:21:25;;;;;;;16.23;9.07;;;18.10;1.00;;;;;;5056258;28;20074;-59
2022/11/01 12:23:56;;;;;;;13.57;9.35;;;17.70;20.10;;;;;;5051318;28;20413;-59
2022/11/01 12:26:24;;;;;;;12.90;9.73;;;17.70;13.30;;;;;;5048446;28;20041;-59
2022/11/01 12:29:00;;;;;;;17.45;10.52;;;17.70;7.30;;;;;;5052543;28;20033;-59
2022/11/01 12:31:26;;;;;;;15.43;10.05;;;17.70;8.10;;;;;;5049160;28;20029;-59
2022/11/01 12:33:57;;;;;;;12.52;8.32;;;17.70;1.00;;;;;;5051112;28;20025;-59
2022/11/01 12:36:34;;;;;;;13.63;8.63;;;17.60;1.00;;;;;;5051286;28;20488;-59
2022/11/01 12:39:28;;;;;;;14.45;10.30;;;17.70;1.00;;;;;;5065052;28;20433;-59
2022/11/01 12:42:02;;;;;;;12.10;9.07;;;17.80;1.40;;;;;;5049631;28;20056;-59
2022/11/01 12:44:40;;;;;;;12.93;8.55;;;17.70;1.00;;;;;;5053903;28;20029;-59
2022/11/01 12:47:24;;;;;;;13.00;9.00;;;17.80;1.00;;;;;;5053432;28;20032;-59
2022/11/01 12:50:19;;;;;;;14.15;9.75;;;17.70;1.00;;;;;;5054559;28;20059;-59
2022/11/01 12:53:16;;;;;;;17.40;9.90;;;17.80;1.00;;;;;;5039017;28;20087;-59
2022/11/01 12:55:42;;;;;;;11.52;9.20;;;17.80;1.00;;;;;;5048871;28;20035;-59
2022/11/01 12:58:15;;;;;;;17.77;9.13;;;17.80;1.00;;;;;;5051906;28;20031;-60
2022/11/01 13:00:59;;;;;;;12.35;10.18;;;17.80;1.00;;;;;;5052207;28;20385;-60
2022/11/01 13:03:51;;;;;;;18.70;10.60;;;17.80;99.90;;;;;;5050351;28;20029;-59
2022/11/01 13:06:40;;;;;;;14.68;10.18;;;17.80;99.90;;;;;;5054796;28;20040;-60
2022/11/01 13:09:37;;;;;;;21.38;13.90;;;17.60;99.90;;;;;;5053844;28;20044;-60
2022/11/01 13:12:12;;;;;;;20.15;12.00;;;17.60;13.10;;;;;;5052309;28;20029;-60
2022/11/01 13:14:40;;;;;;;17.88;11.38;;;17.40;17.60;;;;;;5055054;28;20057;-60
2022/11/01 13:17:22;;;;;;;15.88;11.52;;;17.30;99.90;;;;;;5049830;28;20041;-61
2022/11/01 13:20:19;;;;;;;18.30;13.35;;;17.20;99.90;;;;;;5051802;28;20428;-60